Time;durP1;ratioP1;P1;durP2;ratioP2;P2;SDS_P1;SDS_P2;PMS_P1;PMS_P2;Temp;Humidity;BMP_temperature;BMP_pressure;BME280_temperature;BME280_humidity;BME280_pressure;Samples;Min_cycle;Max_cycle;Signal;HPM_P1;HPM_P2
2024/01/17 00:01:00;;;;;;;11.20;8.10;;;;;;;-5.83;100.00;94803.00;7403640;19;20364;-93
2024/01/17 00:03:43;;;;;;;12.87;8.70;;;;;;;-5.79;100.00;94798.97;7402136;19;20408;-95
2024/01/17 00:06:27;;;;;;;11.07;8.13;;;;;;;-7.34;100.00;94530.16;7402619;19;20361;-94
2024/01/17 00:09:11;;;;;;;9.73;8.63;;;;;;;-5.64;100.00;94791.53;7403586;19;20401;-94
2024/01/17 00:11:55;;;;;;;15.67;10.67;;;;;;;-5.72;100.00;94783.50;7403985;19;20369;-92
2024/01/17 00:14:39;;;;;;;10.93;8.90;;;;;;;-5.69;100.00;94795.75;7404035;19;20417;-94
2024/01/17 00:17:22;;;;;;;10.80;8.70;;;;;;;-5.76;100.00;94787.53;7403561;19;20357;-92
2024/01/17 00:20:09;;;;;;;9.80;8.43;;;;;;;-6.39;100.00;94723.03;7402319;19;20400;-94
2024/01/17 00:22:54;;;;;;;11.37;8.60;;;;;;;-6.27;100.00;94776.56;7401203;19;20408;-94
2024/01/17 00:25:38;;;;;;;11.70;9.00;;;;;;;-6.43;100.00;94765.34;7402865;19;20379;-94
2024/01/17 00:28:21;;;;;;;13.20;8.97;;;;;;;-6.47;100.00;94743.81;7403230;19;20913;-93
2024/01/17 00:31:05;;;;;;;13.53;10.53;;;;;;;-6.29;100.00;94761.47;7403252;19;20364;-94
2024/01/17 00:33:48;;;;;;;15.20;10.00;;;;;;;-6.38;100.00;94749.31;7400984;19;20396;-92
2024/01/17 00:36:32;;;;;;;16.37;10.70;;;;;;;-6.22;100.00;94746.00;7402653;19;20384;-92
2024/01/17 00:39:16;;;;;;;13.27;9.20;;;;;;;-5.99;100.00;94761.16;7402915;19;20390;-94
2024/01/17 00:42:00;;;;;;;17.07;11.80;;;;;;;-6.21;100.00;94723.81;7402205;19;20368;-93
2024/01/17 00:44:44;;;;;;;14.30;8.70;;;;;;;-6.54;100.00;94661.59;7402666;19;20398;-92
2024/01/17 00:47:27;;;;;;;12.60;9.50;;;;;;;-6.26;100.00;94693.88;7409078;19;20357;-91
2024/01/17 00:50:14;;;;;;;12.57;10.40;;;;;;;-6.04;100.00;94732.25;7409505;19;20373;-94
2024/01/17 00:53:03;;;;;;;12.07;8.60;;;;;;;-6.95;100.00;94657.63;7402484;19;20424;-94
2024/01/17 00:55:47;;;;;;;10.33;7.97;;;;;;;-6.26;100.00;94716.84;7403123;19;20366;-93
2024/01/17 00:58:36;;;;;;;10.73;8.10;;;;;;;-6.23;100.00;94722.25;7403666;19;20378;-93
2024/01/17 01:01:36;;;;;;;9.80;8.87;;;;;;;-6.24;100.00;94722.50;7403089;19;20371;-94
2024/01/17 01:04:20;;;;;;;13.13;8.27;;;;;;;-6.51;100.00;94722.34;7403819;19;20352;-92
2024/01/17 01:07:23;;;;;;;9.30;8.00;;;;;;;-6.93;100.00;94719.34;7401528;19;20381;-92
2024/01/17 01:10:08;;;;;;;11.80;8.27;;;;;;;-6.75;100.00;94716.59;7402075;19;20353;-93
2024/01/17 01:12:52;;;;;;;12.50;6.67;;;;;;;-6.76;100.00;94712.50;7400535;19;20411;-93
2024/01/17 01:15:35;;;;;;;13.23;8.37;;;;;;;-6.66;100.00;94694.81;7401748;19;20369;-93
2024/01/17 01:18:19;;;;;;;14.73;9.93;;;;;;;-6.51;100.00;94701.94;7401229;19;20369;-93
2024/01/17 01:21:04;;;;;;;12.10;9.60;;;;;;;-6.44;100.00;94699.25;7399718;19;20417;-92
2024/01/17 01:23:48;;;;;;;11.47;8.50;;;;;;;-6.82;100.00;94693.03;7399481;19;20417;-92
2024/01/17 01:26:32;;;;;;;9.63;8.53;;;;;;;-7.36;100.00;94623.88;7399350;19;20456;-91
2024/01/17 01:29:16;;;;;;;10.03;8.63;;;;;;;-6.75;100.00;94698.75;7401275;19;20357;-92
2024/01/17 01:32:00;;;;;;;10.00;9.00;;;;;;;-6.92;100.00;94641.88;7401385;19;20372;-93
2024/01/17 01:34:44;;;;;;;10.63;8.67;;;;;;;-6.56;100.00;94696.75;7399000;19;20853;-93
2024/01/17 01:37:27;;;;;;;15.20;9.23;;;;;;;-6.53;100.00;94691.19;7400754;19;20367;-92
2024/01/17 01:40:13;;;;;;;15.17;7.63;;;;;;;-6.67;100.00;94695.06;7401017;19;20675;-93
2024/01/17 01:43:00;;;;;;;13.93;9.27;;;;;;;-6.56;100.00;94691.66;7399530;19;20518;-93
2024/01/17 01:45:43;;;;;;;10.43;7.43;;;;;;;-6.52;100.00;94682.53;7399531;19;20379;-93
2024/01/17 01:48:29;;;;;;;17.97;9.10;;;;;;;-6.71;100.00;94684.56;7400494;19;20360;-93
2024/01/17 01:51:16;;;;;;;12.87;8.63;;;;;;;-6.68;100.00;94676.44;7400236;19;20386;-92
2024/01/17 01:54:03;;;;;;;12.93;6.93;;;;;;;-6.88;100.00;94679.41;7399535;19;20400;-93
2024/01/17 01:56:49;;;;;;;11.10;7.33;;;;;;;-6.75;100.00;94677.56;7400117;19;20439;-94
2024/01/17 01:59:32;;;;;;;12.60;7.73;;;;;;;-6.58;100.00;94663.84;7399781;19;20389;-92
2024/01/17 02:02:16;;;;;;;12.13;8.77;;;;;;;-6.44;100.00;94668.63;7399549;19;20415;-92
2024/01/17 02:05:04;;;;;;;10.83;9.10;;;;;;;-6.52;100.00;94664.69;7399831;19;20373;-94
2024/01/17 02:07:49;;;;;;;15.30;9.37;;;;;;;-6.61;100.00;94666.06;7400198;19;20435;-94
2024/01/17 02:10:34;;;;;;;11.60;10.23;;;;;;;-6.72;100.00;94661.81;7399620;19;20372;-94
2024/01/17 02:13:19;;;;;;;12.63;9.67;;;;;;;-6.60;100.00;94670.16;7398918;19;20787;-93
2024/01/17 02:16:08;;;;;;;13.00;8.97;;;;;;;-6.62;100.00;94667.06;7399847;19;20361;-93
2024/01/17 02:18:53;;;;;;;7.87;7.10;;;;;;;-6.73;100.00;94671.22;7399321;19;20399;-94
2024/01/17 02:21:37;;;;;;;11.27;7.60;;;;;;;-6.92;100.00;94657.94;7399654;19;20359;-93
2024/01/17 02:24:23;;;;;;;7.80;6.17;;;;;;;-6.94;100.00;94670.16;7399398;19;20364;-93
2024/01/17 02:27:06;;;;;;;6.77;6.07;;;;;;;-6.92;100.00;94665.59;7397792;19;20368;-93
2024/01/17 02:29:50;;;;;;;15.03;7.80;;;;;;;-7.56;100.00;94591.16;7399404;19;20368;-93
2024/01/17 02:32:36;;;;;;;9.00;7.33;;;;;;;-6.92;100.00;94668.13;7398625;19;20464;-93
2024/01/17 02:35:20;;;;;;;10.73;7.27;;;;;;;-7.23;100.00;94643.16;7398684;19;20369;-93
2024/01/17 02:38:04;;;;;;;10.53;6.67;;;;;;;-7.15;100.00;94647.88;7399310;19;20370;-93
2024/01/17 02:40:48;;;;;;;11.47;7.33;;;;;;;-7.10;100.00;94645.41;7398860;19;20368;-93
2024/01/17 02:43:31;;;;;;;10.23;7.13;;;;;;;-7.06;100.00;94646.50;7397567;19;20392;-94
2024/01/17 02:46:16;;;;;;;8.50;7.23;;;;;;;-7.05;100.00;94627.66;7402050;19;20380;-93
2024/01/17 02:49:00;;;;;;;7.40;6.03;;;;;;;-7.07;100.00;94618.69;7406857;19;20379;-95
2024/01/17 02:51:44;;;;;;;7.60;6.80;;;;;;;-7.18;100.00;94582.09;7406729;19;20381;-93
2024/01/17 02:54:28;;;;;;;8.47;6.90;;;;;;;-6.96;100.00;94608.44;7406558;19;20385;-94
2024/01/17 02:57:12;;;;;;;11.23;7.20;;;;;;;-6.94;100.00;94608.19;7406891;19;20664;-93
2024/01/17 02:59:55;;;;;;;13.10;6.87;;;;;;;-7.06;100.00;94610.81;7406396;19;20376;-93
2024/01/17 03:02:40;;;;;;;7.27;6.57;;;;;;;-6.96;100.00;94615.31;7404988;19;20410;-93
2024/01/17 03:05:24;;;;;;;10.40;7.50;;;;;;;-6.94;100.00;94608.97;7408460;19;20365;-91
2024/01/17 03:08:09;;;;;;;9.57;7.20;;;;;;;-6.81;100.00;94602.03;7414495;19;20920;-91
2024/01/17 03:10:53;;;;;;;9.50;6.70;;;;;;;-6.96;100.00;94594.91;7408868;19;20383;-94
2024/01/17 03:13:36;;;;;;;8.97;6.70;;;;;;;-7.12;100.00;94553.13;7403791;19;20785;-93
2024/01/17 03:16:20;;;;;;;8.50;6.13;;;;;;;-7.02;100.00;94588.19;7405375;19;20849;-92
2024/01/17 03:19:04;;;;;;;12.87;7.00;;;;;;;-7.16;100.00;94585.94;7404937;19;20364;-94
2024/01/17 03:21:50;;;;;;;8.03;6.53;;;;;;;-7.23;100.00;94557.31;7405022;19;20373;-94
2024/01/17 03:24:37;;;;;;;12.53;7.17;;;;;;;-6.98;100.00;94586.75;7405123;19;20419;-95
2024/01/17 03:27:20;;;;;;;8.73;7.87;;;;;;;-6.95;100.00;94586.28;7412217;19;20408;-91
2024/01/17 03:30:23;;;;;;;13.53;7.77;;;;;;;-6.91;100.00;94584.78;7406778;19;20360;-94
2024/01/17 03:33:07;;;;;;;10.03;8.43;;;;;;;-6.89;100.00;94578.44;7403260;19;20396;-94
2024/01/17 03:35:51;;;;;;;12.40;7.23;;;;;;;-7.48;100.00;94513.63;7404710;19;20368;-94
2024/01/17 03:38:35;;;;;;;9.13;6.83;;;;;;;-7.44;100.00;94558.78;7404712;19;20364;-93
2024/01/17 03:41:19;;;;;;;7.43;5.90;;;;;;;-7.62;100.00;94553.13;7404606;19;20424;-93
2024/01/17 03:44:04;;;;;;;17.70;9.27;;;;;;;-7.49;100.00;94542.66;7402123;19;20412;-94
2024/01/17 03:46:47;;;;;;;9.60;6.07;;;;;;;-7.36;100.00;94539.03;7402670;19;20408;-94
2024/01/17 03:49:31;;;;;;;9.57;6.70;;;;;;;-7.27;100.00;94529.97;7404623;19;20845;-93
2024/01/17 03:52:16;;;;;;;20.43;6.70;;;;;;;-7.19;100.00;94527.03;7403405;19;20479;-93
2024/01/17 03:55:00;;;;;;;8.30;7.50;;;;;;;-7.17;100.00;94522.47;7404085;19;20369;-93
2024/01/17 03:57:43;;;;;;;14.23;6.90;;;;;;;-7.47;100.00;94454.06;7402808;19;20868;-93
2024/01/17 04:00:30;;;;;;;6.60;5.90;;;;;;;-7.00;100.00;94512.25;7405102;19;20376;-94
2024/01/17 04:03:13;;;;;;;11.77;6.60;;;;;;;-7.07;100.00;94486.19;7403873;19;20461;-93
2024/01/17 04:05:57;;;;;;;11.30;6.50;;;;;;;-6.86;100.00;94506.59;7404046;19;20386;-94
2024/01/17 04:08:43;;;;;;;6.50;5.83;;;;;;;-7.13;100.00;94468.25;7404988;19;20360;-93
2024/01/17 04:11:46;;;;;;;12.03;6.60;;;;;;;-6.86;100.00;94486.22;7404723;19;20424;-93
2024/01/17 04:14:33;;;;;;;8.57;6.60;;;;;;;-7.06;100.00;94435.00;7404731;19;20909;-93
2024/01/17 04:17:18;;;;;;;14.03;6.40;;;;;;;-6.78;100.00;94467.19;7403462;19;20368;-93
2024/01/17 04:20:03;;;;;;;8.07;6.70;;;;;;;-6.66;100.00;94472.97;7402127;19;20710;-94
2024/01/17 04:22:47;;;;;;;9.20;5.80;;;;;;;-6.92;100.00;94461.66;7402314;19;20408;-93
2024/01/17 04:25:31;;;;;;;6.40;5.73;;;;;;;-6.99;100.00;94462.84;7402755;19;20369;-94
2024/01/17 04:28:15;;;;;;;8.30;6.70;;;;;;;-7.37;100.00;94382.91;7402991;19;20366;-95
2024/01/17 04:30:58;;;;;;;16.13;11.90;;;;;;;-6.88;100.00;94429.59;7403386;19;20361;-94
2024/01/17 04:33:42;;;;;;;13.30;10.63;;;;;;;-6.82;100.00;94447.53;7401357;19;20767;-94
2024/01/17 04:36:30;;;;;;;12.17;11.03;;;;;;;-6.84;100.00;94445.97;7402895;19;20365;-94
2024/01/17 04:39:19;;;;;;;18.17;11.90;;;;;;;-6.71;100.00;94434.66;7403038;19;20374;-93
2024/01/17 04:42:03;;;;;;;15.00;11.00;;;;;;;-6.72;100.00;94439.97;7402344;19;20431;-92
2024/01/17 04:44:48;;;;;;;14.47;10.17;;;;;;;-6.73;100.00;94436.66;7402597;19;20451;-93
2024/01/17 04:47:32;;;;;;;11.50;9.37;;;;;;;-6.80;100.00;94423.34;7402518;19;20373;-94
2024/01/17 04:50:16;;;;;;;11.70;10.67;;;;;;;-6.63;100.00;94423.25;7402132;19;20900;-94
2024/01/17 04:53:00;;;;;;;9.47;8.70;;;;;;;-6.67;100.00;94419.66;7400801;19;20898;-94
2024/01/17 04:55:44;;;;;;;10.23;9.20;;;;;;;-6.71;100.00;94416.06;7402370;19;20365;-93
2024/01/17 04:58:28;;;;;;;13.97;9.10;;;;;;;-6.66;100.00;94405.91;7401791;19;20365;-93
2024/01/17 05:01:12;;;;;;;11.23;7.53;;;;;;;-6.67;100.00;94404.34;7401759;19;20369;-95
2024/01/17 05:03:56;;;;;;;13.00;8.17;;;;;;;-7.18;100.00;94317.13;7401028;19;20413;-93
2024/01/17 05:06:39;;;;;;;9.13;7.67;;;;;;;-6.60;100.00;94403.16;7400437;19;20375;-94
2024/01/17 05:09:23;;;;;;;9.80;7.40;;;;;;;-6.50;100.00;94394.06;7401598;19;20852;-94
2024/01/17 05:12:08;;;;;;;8.20;7.40;;;;;;;-6.65;100.00;94371.75;7401425;19;20368;-94
2024/01/17 05:14:52;;;;;;;9.07;8.20;;;;;;;-6.59;100.00;94386.84;7402021;19;20365;-93
2024/01/17 05:17:36;;;;;;;10.37;7.93;;;;;;;-6.64;100.00;94386.03;7401346;19;20367;-94
2024/01/17 05:20:19;;;;;;;8.77;7.07;;;;;;;-6.61;100.00;94388.09;7400058;19;20449;-93
2024/01/17 05:23:04;;;;;;;12.50;7.97;;;;;;;-6.75;100.00;94379.28;7400631;19;20396;-93
2024/01/17 05:25:48;;;;;;;8.10;6.30;;;;;;;-6.55;100.00;94374.41;7400441;19;20400;-93
2024/01/17 05:28:32;;;;;;;10.70;6.53;;;;;;;-6.49;100.00;94367.56;7400887;19;20385;-94
2024/01/17 05:31:16;;;;;;;15.23;7.20;;;;;;;-6.61;100.00;94368.47;7401265;19;20369;-93
2024/01/17 05:34:00;;;;;;;11.23;7.90;;;;;;;-6.63;100.00;94364.63;7399191;19;20396;-93
2024/01/17 05:36:45;;;;;;;6.83;6.10;;;;;;;-6.79;100.00;94356.03;7400695;19;20865;-93
2024/01/17 05:39:28;;;;;;;8.13;6.87;;;;;;;-6.70;100.00;94343.66;7400580;19;20369;-95
2024/01/17 05:42:12;;;;;;;11.17;7.77;;;;;;;-6.63;100.00;94341.66;7400503;19;20365;-92
2024/01/17 05:44:59;;;;;;;11.60;9.77;;;;;;;-6.59;100.00;94340.94;7400635;19;20440;-93
2024/01/17 05:47:43;;;;;;;20.60;13.23;;;;;;;-6.82;100.00;94279.28;7400662;19;20365;-93
2024/01/17 05:50:27;;;;;;;22.73;14.70;;;;;;;-6.30;100.00;94338.94;7411306;19;20372;-92
2024/01/17 05:53:11;;;;;;;19.77;13.80;;;;;;;-6.31;100.00;94324.63;7399430;19;20404;-92
2024/01/17 05:55:54;;;;;;;19.53;10.80;;;;;;;-6.25;100.00;94325.44;7400381;19;20372;-94
2024/01/17 05:58:41;;;;;;;13.83;10.70;;;;;;;-6.20;100.00;94317.03;7401053;19;20811;-93
2024/01/17 06:01:25;;;;;;;14.10;11.13;;;;;;;-6.48;100.00;94315.53;7401562;19;20364;-93
2024/01/17 06:04:11;;;;;;;21.10;10.60;;;;;;;-6.62;100.00;94315.91;7399533;19;20401;-93
2024/01/17 06:06:54;;;;;;;13.60;9.10;;;;;;;-6.48;100.00;94313.75;7399975;19;20376;-94
2024/01/17 06:09:38;;;;;;;12.10;8.57;;;;;;;-6.92;100.00;94234.84;7400852;19;20380;-94
2024/01/17 06:12:21;;;;;;;15.83;8.57;;;;;;;-6.75;100.00;94244.16;7400931;19;20464;-94
2024/01/17 06:15:17;;;;;;;15.73;11.00;;;;;;;-6.31;100.00;94290.69;7400781;19;20364;-94
2024/01/17 06:18:25;;;;;;;13.23;8.00;;;;;;;-6.11;100.00;94288.28;7400310;19;20376;-86
2024/01/17 06:21:26;;;;;;;17.10;10.63;;;;;;;-6.81;100.00;94181.41;7399207;19;20854;-93
2024/01/17 06:24:10;;;;;;;18.60;9.13;;;;;;;-6.12;100.00;94288.53;7398909;19;20400;-94
2024/01/17 06:26:53;;;;;;;11.37;10.10;;;;;;;-6.13;100.00;94297.97;7398653;19;20444;-93
2024/01/17 06:29:40;;;;;;;13.60;10.47;;;;;;;-5.95;100.00;94289.94;7400141;19;20377;-93
2024/01/17 06:32:23;;;;;;;15.13;10.00;;;;;;;-5.84;100.00;94284.88;7398686;19;20396;-94
2024/01/17 06:35:11;;;;;;;17.83;9.77;;;;;;;-5.88;100.00;94274.41;7399058;19;20890;-94
2024/01/17 06:37:55;;;;;;;18.07;10.37;;;;;;;-5.83;100.00;94271.09;7399527;19;20364;-95
2024/01/17 06:40:38;;;;;;;15.40;10.87;;;;;;;-5.83;100.00;94266.75;7399189;19;20701;-93
2024/01/17 06:43:22;;;;;;;14.07;8.57;;;;;;;-6.44;100.00;94166.13;7397535;19;20393;-94
2024/01/17 06:46:05;;;;;;;16.93;10.30;;;;;;;-5.78;100.00;94260.91;7398285;19;20372;-95
2024/01/17 06:48:49;;;;;;;23.17;13.13;;;;;;;-5.70;100.00;94247.66;7398938;19;20376;-93
2024/01/17 06:51:33;;;;;;;19.77;11.37;;;;;;;-5.65;100.00;94242.56;7398749;19;20375;-93
2024/01/17 06:54:17;;;;;;;17.73;10.80;;;;;;;-7.15;100.00;94001.50;7396563;19;20472;-94
2024/01/17 06:57:00;;;;;;;20.40;11.50;;;;;;;-6.80;100.00;94058.03;7398597;19;20369;-93
2024/01/17 06:59:44;;;;;;;15.80;12.20;;;;;;;-5.48;100.00;94224.53;7398665;19;20384;-93
2024/01/17 07:02:27;;;;;;;17.93;10.57;;;;;;;-5.48;100.00;94229.63;7397899;19;20468;-93
2024/01/17 07:05:12;;;;;;;12.50;8.67;;;;;;;-5.37;100.00;94223.53;7410116;19;20368;-91
2024/01/17 07:07:55;;;;;;;10.20;8.20;;;;;;;-5.13;100.00;94226.41;7410429;19;20361;-94
2024/01/17 07:10:40;;;;;;;13.33;8.50;;;;;;;-5.24;100.00;94192.41;7398308;19;20368;-93
2024/01/17 07:13:24;;;;;;;12.40;8.87;;;;;;;-5.00;100.00;94210.59;7396486;19;20413;-93
2024/01/17 07:16:07;;;;;;;14.30;7.87;;;;;;;-5.08;100.00;94188.84;7398182;19;20432;-94
2024/01/17 07:18:53;;;;;;;10.30;7.00;;;;;;;-4.85;100.00;94190.13;7398285;19;20368;-95
2024/01/17 07:21:42;;;;;;;11.30;8.77;;;;;;;-4.77;100.00;94184.53;7397887;19;20460;-93
2024/01/17 07:24:25;;;;;;;12.07;8.30;;;;;;;-4.66;100.00;94177.63;7397892;19;20361;-92
2024/01/17 07:27:09;;;;;;;10.03;8.30;;;;;;;-4.64;100.00;94172.25;7395461;19;20913;-94
2024/01/17 07:29:53;;;;;;;9.77;8.20;;;;;;;-4.51;100.00;94176.84;7398012;19;20372;-94
2024/01/17 07:32:37;;;;;;;13.23;7.80;;;;;;;-4.42;100.00;94167.66;7399297;19;20717;-95
2024/01/17 07:35:20;;;;;;;12.57;7.70;;;;;;;-5.12;100.00;94041.34;7405036;19;20387;-94
2024/01/17 07:38:04;;;;;;;14.53;8.33;;;;;;;-4.30;100.00;94154.59;7405225;19;20357;-93
2024/01/17 07:40:48;;;;;;;10.83;7.80;;;;;;;-4.27;100.00;94156.63;7404499;19;20360;-94
2024/01/17 07:43:33;;;;;;;10.30;8.70;;;;;;;-4.10;100.00;94159.66;7402741;19;20407;-93
2024/01/17 07:46:17;;;;;;;14.93;9.03;;;;;;;-4.03;100.00;94152.47;7403628;19;20683;-94
2024/01/17 07:49:01;;;;;;;11.70;7.77;;;;;;;-4.08;100.00;94141.47;7404669;19;20381;-94
2024/01/17 07:51:45;;;;;;;15.13;9.10;;;;;;;-3.97;100.00;94145.53;7404469;19;20842;-94
2024/01/17 07:54:29;;;;;;;8.93;7.07;;;;;;;-3.98;100.00;94141.44;7406299;19;20393;-94
2024/01/17 07:57:12;;;;;;;13.20;8.80;;;;;;;-3.90;100.00;94135.78;7404468;19;20369;-92
2024/01/17 07:59:56;;;;;;;11.07;8.17;;;;;;;-3.95;100.00;94131.44;7403398;19;20873;-92
2024/01/17 08:02:44;;;;;;;11.90;7.37;;;;;;;-3.94;100.00;94132.97;7402666;19;20400;-93
2024/01/17 08:05:27;;;;;;;10.27;8.50;;;;;;;-3.85;100.00;94133.97;7402828;19;20375;-93
2024/01/17 08:08:11;;;;;;;10.10;8.23;;;;;;;-3.83;100.00;94115.72;7403813;19;20674;-93
2024/01/17 08:10:56;;;;;;;12.20;8.50;;;;;;;-3.74;100.00;94116.72;7402911;19;20368;-92
2024/01/17 08:13:40;;;;;;;9.83;8.10;;;;;;;-3.68;100.00;94112.34;7401949;19;20400;-93
2024/01/17 08:16:24;;;;;;;12.50;8.20;;;;;;;-3.53;100.00;94102.00;7403111;19;20373;-93
2024/01/17 08:19:07;;;;;;;11.93;8.00;;;;;;;-3.77;100.00;94049.88;7402725;19;20361;-93
2024/01/17 08:21:53;;;;;;;13.47;7.83;;;;;;;-3.28;100.00;94093.41;7403371;19;20678;-93
2024/01/17 08:24:36;;;;;;;12.57;8.30;;;;;;;-3.25;100.00;94087.75;7403273;19;20689;-93
2024/01/17 08:27:20;;;;;;;14.20;8.47;;;;;;;-3.18;100.00;94097.72;7400435;19;20372;-92
2024/01/17 08:30:09;;;;;;;11.20;7.87;;;;;;;-3.17;100.00;94092.31;7402067;19;20440;-93
2024/01/17 08:32:53;;;;;;;11.80;8.00;;;;;;;-3.12;100.00;94082.00;7401544;19;20476;-93
2024/01/17 08:35:37;;;;;;;12.00;8.37;;;;;;;-3.03;100.00;94088.09;7402788;19;20393;-92
2024/01/17 08:38:21;;;;;;;11.97;8.83;;;;;;;-3.02;100.00;94086.31;7401999;19;20368;-92
2024/01/17 08:41:05;;;;;;;10.93;8.97;;;;;;;-3.00;100.00;94085.00;7402765;19;20392;-91
2024/01/17 08:43:49;;;;;;;10.97;7.83;;;;;;;-3.85;100.00;93949.53;7399779;19;20400;-92
2024/01/17 08:46:32;;;;;;;9.07;7.90;;;;;;;-2.89;100.00;94061.84;7400974;19;20424;-94
2024/01/17 08:49:16;;;;;;;9.87;8.30;;;;;;;-2.74;100.00;94059.91;7401417;19;20360;-84
2024/01/17 08:52:02;;;;;;;9.00;7.50;;;;;;;-2.74;100.00;94052.19;7401787;19;20360;-84
2024/01/17 08:55:10;;;;;;;11.23;7.97;;;;;;;-2.71;100.00;94046.53;7400942;19;20372;-84
2024/01/17 08:57:54;;;;;;;13.03;8.57;;;;;;;-2.61;100.00;94040.53;7400672;19;20424;-84
2024/01/17 09:00:37;;;;;;;11.30;8.40;;;;;;;-2.59;100.00;94035.88;7401543;19;20361;-84
2024/01/17 09:03:23;;;;;;;18.80;11.83;;;;;;;-2.59;100.00;94030.75;7399680;19;20417;-84
2024/01/17 09:06:07;;;;;;;14.37;9.03;;;;;;;-2.53;100.00;94021.97;7399754;19;20373;-84
2024/01/17 09:09:04;;;;;;;12.37;8.00;;;;;;;-2.32;100.00;94019.94;7400879;19;20375;-84
2024/01/17 09:11:50;;;;;;;12.00;10.23;;;;;;;-2.33;100.00;94017.66;7400906;19;20373;-86
2024/01/17 09:14:34;;;;;;;11.93;8.67;;;;;;;-2.39;100.00;94019.50;7400526;19;20368;-85
2024/01/17 09:17:18;;;;;;;12.20;9.17;;;;;;;-2.28;100.00;94015.03;7400324;19;20817;-85
2024/01/17 09:20:06;;;;;;;11.20;8.60;;;;;;;-2.39;100.00;94014.38;7399359;19;20400;-85
2024/01/17 09:22:49;;;;;;;8.30;7.50;;;;;;;-2.43;100.00;94009.03;7399943;19;20701;-85
2024/01/17 09:25:33;;;;;;;15.63;10.03;;;;;;;-2.48;100.00;93985.97;7401064;19;20376;-92
2024/01/17 09:28:16;;;;;;;9.97;8.47;;;;;;;-2.29;100.00;94003.25;7402244;19;20368;-91
2024/01/17 09:31:00;;;;;;;12.07;8.50;;;;;;;-2.26;100.00;94007.81;7401762;19;20361;-92
2024/01/17 09:33:49;;;;;;;13.70;8.53;;;;;;;-2.22;100.00;94004.41;7400255;19;20687;-92
2024/01/17 09:36:35;;;;;;;13.03;9.37;;;;;;;-2.32;100.00;93981.41;7401021;19;20865;-92
2024/01/17 09:39:24;;;;;;;13.30;9.70;;;;;;;-2.19;100.00;93993.59;7400810;19;20375;-92
2024/01/17 09:42:10;;;;;;;11.03;8.63;;;;;;;-2.21;100.00;93985.41;7401096;19;20373;-92
2024/01/17 09:44:54;;;;;;;9.50;7.53;;;;;;;-2.13;100.00;93982.22;7401303;19;20349;-92
2024/01/17 09:48:05;;;;;;;11.20;7.93;;;;;;;-2.31;100.00;93929.03;7400693;19;20380;-92
2024/01/17 09:51:16;;;;;;;16.07;9.77;;;;;;;-1.94;100.00;93966.81;7400379;19;20361;-92
2024/01/17 09:54:06;;;;;;;15.07;11.20;;;;;;;-1.87;100.00;93967.25;7399034;19;20472;-93
2024/01/17 09:57:10;;;;;;;10.93;9.43;;;;;;;-1.90;100.00;93943.91;7400485;19;20746;-92
2024/01/17 10:00:06;;;;;;;13.03;9.10;;;;;;;-2.43;100.00;93847.28;7401235;19;20397;-93
2024/01/17 10:02:58;;;;;;;14.87;9.70;;;;;;;-3.40;100.00;93687.97;7399261;19;20400;-93
2024/01/17 10:05:59;;;;;;;12.00;7.60;;;;;;;-1.66;100.00;93947.13;7400177;19;20842;-93
2024/01/17 10:08:48;;;;;;;9.23;8.00;;;;;;;-1.74;100.00;93916.94;7399985;19;20850;-93
2024/01/17 10:11:51;;;;;;;11.90;9.57;;;;;;;-1.50;100.00;93929.69;7400448;19;20368;-93
2024/01/17 10:14:38;;;;;;;11.23;9.03;;;;;;;-1.43;100.00;93924.19;7400901;19;20933;-92
2024/01/17 10:17:25;;;;;;;12.83;8.33;;;;;;;-1.67;100.00;93865.16;7400258;19;20369;-93
2024/01/17 10:20:12;;;;;;;10.17;8.23;;;;;;;-1.34;100.00;93897.50;7398628;19;20419;-92
2024/01/17 10:22:56;;;;;;;12.87;8.97;;;;;;;-1.25;100.00;93902.75;7398591;19;20421;-93
2024/01/17 10:25:43;;;;;;;11.57;9.20;;;;;;;-1.34;100.00;93884.66;7398719;19;20484;-92
2024/01/17 10:28:26;;;;;;;16.70;9.27;;;;;;;-1.13;100.00;93904.84;7401624;19;20369;-90
2024/01/17 10:31:11;;;;;;;11.97;9.83;;;;;;;-1.02;100.00;93890.78;7425707;19;20379;-89
2024/01/17 10:33:56;;;;;;;12.73;9.20;;;;;;;-1.05;100.00;93881.81;7408851;19;20560;-92
2024/01/17 10:36:45;;;;;;;12.90;8.90;;;;;;;-1.33;100.00;93831.41;7399861;19;20687;-92
2024/01/17 10:39:45;;;;;;;11.73;8.70;;;;;;;-0.97;100.00;93870.88;7398293;19;20364;-92
2024/01/17 10:42:28;;;;;;;11.80;9.37;;;;;;;-0.97;100.00;93868.28;7398030;19;20399;-92
2024/01/17 10:45:23;;;;;;;12.47;8.97;;;;;;;-0.99;100.00;93851.59;7398682;19;20371;-92
2024/01/17 10:48:08;;;;;;;12.37;8.43;;;;;;;-0.71;100.00;93854.91;7398474;19;20374;-92
2024/01/17 10:51:01;;;;;;;25.00;13.63;;;;;;;-0.61;100.00;93847.75;7398213;19;20368;-91
2024/01/17 10:53:47;;;;;;;14.97;10.07;;;;;;;-0.49;100.00;93836.94;7396568;19;20490;-92
2024/01/17 10:56:35;;;;;;;9.77;8.77;;;;;;;-0.46;100.00;93828.63;7398284;19;20376;-92
2024/01/17 10:59:21;;;;;;;11.03;8.40;;;;;;;-0.52;100.00;93793.00;7398029;19;20428;-92
2024/01/17 11:02:06;;;;;;;10.67;8.43;;;;;;;-0.47;100.00;93809.09;7397456;19;20380;-92
2024/01/17 11:04:59;;;;;;;11.43;8.30;;;;;;;-0.29;100.00;93807.44;7397224;19;20857;-91
2024/01/17 11:07:43;;;;;;;12.10;8.60;;;;;;;-0.11;100.00;93792.84;7401117;19;20384;-91
2024/01/17 11:10:29;;;;;;;15.13;10.17;;;;;;;-0.02;100.00;93798.81;7405068;19;20432;-90
2024/01/17 11:13:15;;;;;;;9.57;8.33;;;;;;;-0.14;100.00;93788.28;7403237;19;20600;-92
2024/01/17 11:16:01;;;;;;;13.57;10.13;;;;;;;-0.67;100.00;93696.25;7404585;19;20380;-91
2024/01/17 11:18:46;;;;;;;12.53;9.67;;;;;;;-0.80;100.00;93661.00;7404666;19;20766;-91
2024/01/17 11:21:32;;;;;;;10.47;8.90;;;;;;;-0.05;100.00;93765.88;7404400;19;20387;-92
2024/01/17 11:24:42;;;;;;;13.93;10.50;;;;;;;-0.00;100.00;93763.19;7402035;19;20955;-91
2024/01/17 11:28:10;;;;;;;14.37;9.63;;;;;;;0.11;100.00;93743.09;7401752;19;20381;-92
2024/01/17 11:31:23;;;;;;;14.20;9.43;;;;;;;0.20;100.00;93747.22;7404151;19;20447;-91
2024/01/17 11:34:08;;;;;;;11.50;8.03;;;;;;;0.04;100.00;93728.03;7402259;19;20401;-90
2024/01/17 11:36:52;;;;;;;8.80;7.97;;;;;;;-0.03;100.00;93718.16;7403976;19;20876;-92
2024/01/17 11:39:36;;;;;;;9.27;8.33;;;;;;;0.10;100.00;93708.06;7404088;19;20361;-85
2024/01/17 11:42:21;;;;;;;11.83;9.27;;;;;;;0.19;100.00;93704.44;7402825;19;20404;-86
2024/01/17 11:45:06;;;;;;;8.83;7.20;;;;;;;0.21;100.00;93696.41;7402323;19;20368;-87
2024/01/17 11:47:55;;;;;;;12.63;9.53;;;;;;;-0.08;100.00;93647.91;7403993;19;20392;-87
2024/01/17 11:50:39;;;;;;;12.13;9.33;;;;;;;-0.17;100.00;93629.06;7403248;19;20388;-87
2024/01/17 11:53:24;;;;;;;10.63;8.00;;;;;;;0.23;100.00;93673.69;7400979;19;20396;-87
2024/01/17 11:56:12;;;;;;;11.30;9.53;;;;;;;-0.50;100.00;93523.03;7403251;19;20432;-87
2024/01/17 11:58:58;;;;;;;10.50;9.27;;;;;;;0.11;100.00;93602.06;7402479;19;20361;-87
2024/01/17 12:01:46;;;;;;;14.57;10.90;;;;;;;0.53;100.00;93646.31;7402608;19;20372;-86
2024/01/17 12:04:33;;;;;;;12.27;10.13;;;;;;;-0.37;100.00;93506.72;7401966;19;20695;-87
2024/01/17 12:07:17;;;;;;;14.97;10.80;;;;;;;0.02;100.00;93555.63;7399942;19;20372;-87
2024/01/17 12:10:00;;;;;;;10.83;9.80;;;;;;;0.66;100.00;93629.19;7402218;19;20369;-87
2024/01/17 12:12:44;;;;;;;12.50;10.53;;;;;;;0.56;100.00;93587.13;7401097;19;20398;-86
2024/01/17 12:15:27;;;;;;;13.87;9.40;;;;;;;0.71;100.00;93610.97;7402154;19;20384;-87
2024/01/17 12:18:11;;;;;;;12.00;10.73;;;;;;;0.65;100.00;93599.28;7400444;19;20369;-87
2024/01/17 12:20:55;;;;;;;9.90;8.90;;;;;;;0.44;100.00;93532.03;7399628;19;20450;-87
2024/01/17 12:23:39;;;;;;;13.00;9.40;;;;;;;0.82;100.00;93588.94;7399878;19;20699;-87
2024/01/17 12:26:23;;;;;;;9.33;8.13;;;;;;;-0.07;100.00;93423.41;7400726;19;20396;-87
2024/01/17 12:29:26;;;;;;;9.27;7.53;;;;;;;0.99;100.00;93555.38;7401540;19;20688;-86
2024/01/17 12:32:10;;;;;;;9.80;8.80;;;;;;;0.31;100.00;93438.28;7401248;19;20428;-86
2024/01/17 12:34:54;;;;;;;9.13;6.70;;;;;;;1.05;100.00;93543.84;7402823;19;20400;-94
2024/01/17 12:37:38;;;;;;;11.80;9.40;;;;;;;1.22;100.00;93530.13;7402616;19;20887;-94
2024/01/17 12:40:22;;;;;;;12.90;9.23;;;;;;;0.45;100.00;93418.22;7402991;19;20377;-94
2024/01/17 12:43:06;;;;;;;8.50;7.63;;;;;;;0.34;100.00;93363.63;7401987;19;20465;-93
2024/01/17 12:45:50;;;;;;;8.77;7.40;;;;;;;1.17;100.00;93491.56;7402229;19;20372;-94